Time,TemperatureF,DewpointF,PressureIn,WindDirection,WindDirectionDegrees,WindSpeedMPH,WindSpeedGustMPH,Humidity,HourlyPrecipIn,Conditions,Clouds,dailyrainin,SoftwareType,DateUTC
2013-05-06 00:04:00,53.1,13.0,29.83,SE,135,0.0,0.0,20,0.00,CLR,,0.00,WeatherDisplay:10.37,2013-05-06 07:04:00,
2013-05-06 00:09:00,52.7,11.5,29.83,SE,135,0.0,0.0,19,0.00,CLR,,0.00,WeatherDisplay:10.37,2013-05-06 07:09:00,
2013-05-06 00:14:00,52.3,13.5,29.83,South,180,1.2,0.0,21,0.00,CLR,,0.00,WeatherDisplay:10.37,2013-05-06 07:14:00,
2013-05-06 00:19:00,52.0,14.3,29.83,NW,315,2.3,2.3,22,0.00,CLR,,0.00,WeatherDisplay:10.37,2013-05-06 07:19:00,
2013-05-06 00:24:00,51.8,16.1,29.83,SW,225,1.2,0.0,24,0.00,CLR,,0.00,WeatherDisplay:10.37,2013-05-06 07:24:00,
2013-05-06 00:29:00,51.4,17.6,29.83,South,180,1.2,0.0,26,0.00,CLR,,0.00,WeatherDisplay:10.37,2013-05-06 07:29:00,
2013-05-06 00:34:00,51.1,18.2,29.83,SW,225,0.0,0.0,27,0.00,CLR,,0.00,WeatherDisplay:10.37,2013-05-06 07:34:00,
2013-05-06 00:39:00,50.9,20.5,29.83,SW,225,1.2,0.0,30,0.00,CLR,,0.00,WeatherDisplay:10.37,2013-05-06 07:39:00,
2013-05-06 00:44:00,50.5,22.5,29.83,SW,225,1.2,0.0,33,0.00,CLR,,0.00,WeatherDisplay:10.37,2013-05-06 07:44:00,
2013-05-06 00:49:00,50.4,23.0,29.83,West,270,0.0,0.0,34,0.00,CLR,,0.00,WeatherDisplay:10.37,2013-05-06 07:49:00,
2013-05-06 00:54:00,50.2,23.5,29.83,SW,225,0.0,0.0,35,0.00,CLR,,0.00,WeatherDisplay:10.37,2013-05-06 07:54:00,
2013-05-06 00:59:00,50.0,23.4,29.83,North,0,0.0,0.0,35,0.00,CLR,,0.00,WeatherDisplay:10.37,2013-05-06 07:59:00,
2013-05-06 01:04:00,49.6,24.4,29.84,SW,225,1.2,0.0,37,0.00,CLR,,0.00,WeatherDisplay:10.37,2013-05-06 08:04:00,
2013-05-06 01:09:00,49.6,25.0,29.84,SE,135,1.2,0.0,38,0.00,CLR,,0.00,WeatherDisplay:10.37,2013-05-06 08:09:00,
2013-05-06 01:14:00,49.5,25.5,29.84,SE,135,0.0,0.0,39,0.00,CLR,,0.00,WeatherDisplay:10.37,2013-05-06 08:14:00,
2013-05-06 01:19:00,49.5,26.7,29.84,East,90,1.2,0.0,41,0.00,CLR,,0.00,WeatherDisplay:10.37,2013-05-06 08:19:00,
2013-05-06 01:24:00,49.3,26.5,29.84,NW,315,1.2,0.0,41,0.00,CLR,,0.00,WeatherDisplay:10.37,2013-05-06 08:24:00,
2013-05-06 01:29:00,49.3,27.1,29.84,SW,225,1.6,0.0,42,0.00,CLR,,0.00,WeatherDisplay:10.37,2013-05-06 08:29:00,
2013-05-06 01:34:00,48.9,26.8,29.84,South,180,1.2,0.0,42,0.00,CLR,,0.00,WeatherDisplay:10.37,2013-05-06 08:34:00,
2013-05-06 01:39:00,48.6,26.5,29.84,South,180,1.2,0.0,42,0.00,CLR,,0.00,WeatherDisplay:10.37,2013-05-06 08:39:00,
2013-05-06 01:44:00,48.4,26.3,29.84,South,180,0.0,0.0,42,0.00,CLR,,0.00,WeatherDisplay:10.37,2013-05-06 08:44:00,
2013-05-06 01:49:00,48.0,26.6,29.84,West,270,0.0,0.0,43,0.00,CLR,,0.00,WeatherDisplay:10.37,2013-05-06 08:49:00,
2013-05-06 01:54:00,47.8,27.0,29.84,NW,315,1.2,0.0,44,0.00,CLR,,0.00,WeatherDisplay:10.37,2013-05-06 08:54:00,
2013-05-06 01:59:00,48.0,27.7,29.84,North,0,1.2,0.0,45,0.00,CLR,,0.00,WeatherDisplay:10.37,2013-05-06 08:59:00,
2013-05-06 02:04:00,47.8,28.0,29.84,SE,135,1.2,0.0,46,0.00,CLR,,0.00,WeatherDisplay:10.37,2013-05-06 09:04:00,
2013-05-06 02:09:00,47.7,27.9,29.84,West,270,1.2,0.0,46,0.00,CLR,,0.00,WeatherDisplay:10.37,2013-05-06 09:09:00,
2013-05-06 02:14:00,47.7,27.9,29.84,SW,225,1.2,0.0,46,0.00,CLR,,0.00,WeatherDisplay:10.37,2013-05-06 09:14:00,
2013-05-06 02:19:00,47.5,27.7,29.84,North,0,1.2,0.0,46,0.00,CLR,,0.00,WeatherDisplay:10.37,2013-05-06 09:19:00,
2013-05-06 02:24:00,47.5,28.7,29.85,NE,45,1.6,0.0,48,0.00,CLR,,0.00,WeatherDisplay:10.37,2013-05-06 09:24:00,
2013-05-06 02:29:00,47.5,28.7,29.85,SW,225,1.2,1.2,48,0.00,CLR,,0.00,WeatherDisplay:10.37,2013-05-06 09:29:00,
2013-05-06 02:34:00,47.3,28.6,29.85,West,270,1.2,0.0,48,0.00,CLR,,0.00,WeatherDisplay:10.37,2013-05-06 09:34:00,
2013-05-06 02:39:00,47.1,28.4,29.85,West,270,0.0,0.0,48,0.00,CLR,,0.00,WeatherDisplay:10.37,2013-05-06 09:39:00,
2013-05-06 02:44:00,46.9,28.8,29.85,SW,225,0.0,0.7,49,0.00,CLR,,0.00,WeatherDisplay:10.37,2013-05-06 09:44:00,
2013-05-06 02:49:00,46.9,28.8,29.85,SW,225,0.0,0.0,49,0.00,CLR,,0.00,WeatherDisplay:10.37,2013-05-06 09:49:00,
2013-05-06 02:54:00,46.8,29.1,29.85,SW,225,1.2,0.0,50,0.00,CLR,,0.00,WeatherDisplay:10.37,2013-05-06 09:54:00,
2013-05-06 02:59:00,46.6,28.9,29.84,SW,225,0.0,0.0,50,0.00,CLR,,0.00,WeatherDisplay:10.37,2013-05-06 09:59:00,
2013-05-06 03:04:00,46.6,29.4,29.85,SW,225,1.2,0.0,51,0.00,CLR,,0.00,WeatherDisplay:10.37,2013-05-06 10:04:00,
2013-05-06 03:09:00,46.4,29.2,29.84,SW,225,1.2,0.0,51,0.00,CLR,,0.00,WeatherDisplay:10.37,2013-05-06 10:09:00,
2013-05-06 03:14:00,46.4,29.7,29.84,SW,225,1.2,0.0,52,0.00,CLR,,0.00,WeatherDisplay:10.37,2013-05-06 10:14:00,
2013-05-06 03:20:00,46.6,30.3,29.84,SW,225,0.0,0.0,53,0.00,CLR,,0.00,WeatherDisplay:10.37,2013-05-06 10:20:00,
2013-05-06 03:25:00,46.4,30.2,29.84,SW,225,0.0,0.0,53,0.00,CLR,,0.00,WeatherDisplay:10.37,2013-05-06 10:25:00,
2013-05-06 03:30:00,46.2,30.0,29.84,SW,225,1.2,0.0,53,0.00,CLR,,0.00,WeatherDisplay:10.37,2013-05-06 10:30:00,
2013-05-06 03:35:00,46.2,30.0,29.84,West,270,0.7,0.0,53,0.00,CLR,,0.00,WeatherDisplay:10.37,2013-05-06 10:35:00,
2013-05-06 03:40:00,46.2,30.5,29.85,West,270,1.2,0.0,54,0.00,CLR,,0.00,WeatherDisplay:10.37,2013-05-06 10:40:00,
2013-05-06 03:45:00,46.2,30.5,29.85,NW,315,2.3,0.0,54,0.00,CLR,,0.00,WeatherDisplay:10.37,2013-05-06 10:45:00,
2013-05-06 03:50:00,46.2,30.5,29.85,SW,225,1.2,0.0,54,0.00,CLR,,0.00,WeatherDisplay:10.37,2013-05-06 10:50:00,
2013-05-06 03:55:00,46.0,30.3,29.85,South,180,1.6,1.6,54,0.00,CLR,,0.00,WeatherDisplay:10.37,2013-05-06 10:55:00,
2013-05-06 04:00:00,45.9,30.1,29.85,South,180,1.2,0.0,54,0.00,CLR,,0.00,WeatherDisplay:10.37,2013-05-06 11:00:00,
2013-05-06 04:05:00,45.9,30.1,29.84,West,270,1.2,0.0,54,0.00,CLR,,0.00,WeatherDisplay:10.37,2013-05-06 11:05:00,
2013-05-06 04:10:00,45.9,30.6,29.85,South,180,1.2,0.0,55,0.00,CLR,,0.00,WeatherDisplay:10.37,2013-05-06 11:10:00,
2013-05-06 04:15:00,45.7,30.4,29.85,West,270,0.0,0.0,55,0.00,CLR,,0.00,WeatherDisplay:10.37,2013-05-06 11:15:00,
2013-05-06 04:20:00,45.7,30.4,29.85,West,270,1.2,0.0,55,0.00,CLR,,0.00,WeatherDisplay:10.37,2013-05-06 11:20:00,
2013-05-06 04:25:00,45.9,31.0,29.85,South,180,1.2,0.0,56,0.00,CLR,,0.00,WeatherDisplay:10.37,2013-05-06 11:25:00,
2013-05-06 04:30:00,45.7,30.9,29.85,South,180,0.0,0.0,56,0.00,CLR,,0.00,WeatherDisplay:10.37,2013-05-06 11:30:00,
2013-05-06 04:35:00,45.5,30.7,29.85,East,90,1.2,0.0,56,0.00,CLR,,0.00,WeatherDisplay:10.37,2013-05-06 11:35:00,
2013-05-06 04:40:00,45.5,30.7,29.85,NW,315,0.0,0.0,56,0.00,CLR,,0.00,WeatherDisplay:10.37,2013-05-06 11:40:00,
2013-05-06 04:45:00,45.5,30.7,29.85,SW,225,0.0,0.0,56,0.00,CLR,,0.00,WeatherDisplay:10.37,2013-05-06 11:45:00,
2013-05-06 04:50:00,45.5,31.1,29.85,West,270,1.2,0.0,57,0.00,CLR,,0.00,WeatherDisplay:10.37,2013-05-06 11:50:00,
2013-05-06 04:55:00,45.5,31.1,29.85,West,270,0.0,0.0,57,0.00,CLR,,0.00,WeatherDisplay:10.37,2013-05-06 11:55:00,
2013-05-06 05:00:00,45.9,32.3,29.86,SW,225,0.0,0.0,59,0.00,CLR,,0.00,WeatherDisplay:10.37,2013-05-06 12:00:00,
2013-05-06 05:05:00,45.7,32.2,29.85,SW,225,0.0,0.0,59,0.00,CLR,,0.00,WeatherDisplay:10.37,2013-05-06 12:05:00,
2013-05-06 05:10:00,45.5,33.2,29.86,West,270,1.2,0.0,62,0.00,CLR,,0.00,WeatherDisplay:10.37,2013-05-06 12:10:00,
2013-05-06 05:15:00,45.7,33.4,29.86,West,270,0.0,0.0,62,0.00,CLR,,0.00,WeatherDisplay:10.37,2013-05-06 12:15:00,
2013-05-06 05:20:00,45.9,32.3,29.86,NW,315,1.2,0.0,59,0.00,CLR,,0.00,WeatherDisplay:10.37,2013-05-06 12:20:00,
2013-05-06 05:25:00,46.0,32.1,29.86,East,90,0.0,0.0,58,0.00,CLR,,0.00,WeatherDisplay:10.37,2013-05-06 12:25:00,
2013-05-06 05:30:00,46.2,32.2,29.86,SW,225,0.0,0.0,58,0.00,CLR,,0.00,WeatherDisplay:10.37,2013-05-06 12:30:00,
2013-05-06 05:35:00,46.2,32.2,29.86,SW,225,0.0,0.0,58,0.00,CLR,,0.00,WeatherDisplay:10.37,2013-05-06 12:35:00,
2013-05-06 05:40:00,46.4,32.8,29.86,SW,225,0.0,0.0,59,0.00,CLR,,0.00,WeatherDisplay:10.37,2013-05-06 12:40:00,
2013-05-06 05:45:00,46.4,32.4,29.86,SE,135,0.0,0.0,58,0.00,CLR,,0.00,WeatherDisplay:10.37,2013-05-06 12:45:00,
2013-05-06 05:50:00,46.2,32.2,29.86,SE,135,0.0,0.0,58,0.00,CLR,,0.00,WeatherDisplay:10.37,2013-05-06 12:50:00,
2013-05-06 05:55:00,46.2,32.2,29.86,West,270,1.2,0.0,58,0.00,CLR,,0.00,WeatherDisplay:10.37,2013-05-06 12:55:00,
2013-05-06 06:00:00,46.2,32.7,29.86,SW,225,1.2,0.0,59,0.00,CLR,,0.00,WeatherDisplay:10.37,2013-05-06 13:00:00,
2013-05-06 06:05:00,46.2,32.2,29.86,West,270,1.2,0.0,58,0.00,CLR,,0.00,WeatherDisplay:10.37,2013-05-06 13:05:00,
2013-05-06 06:10:00,46.2,32.7,29.86,SW,225,2.3,0.0,59,0.00,CLR,,0.00,WeatherDisplay:10.37,2013-05-06 13:10:00,
2013-05-06 06:15:00,46.2,32.7,29.85,South,180,1.2,0.0,59,0.00,CLR,,0.00,WeatherDisplay:10.37,2013-05-06 13:15:00,
2013-05-06 06:20:00,46.0,32.1,29.85,SW,225,0.0,0.0,58,0.00,CLR,,0.00,WeatherDisplay:10.37,2013-05-06 13:20:00,
2013-05-06 06:25:00,46.0,32.5,29.85,South,180,1.2,0.0,59,0.00,CLR,,0.00,WeatherDisplay:10.37,2013-05-06 13:25:00,
2013-05-06 06:30:00,46.0,32.5,29.85,West,270,0.0,0.0,59,0.00,CLR,,0.00,WeatherDisplay:10.37,2013-05-06 13:30:00,
2013-05-06 06:35:00,46.4,32.8,29.85,West,270,1.2,0.0,59,0.00,CLR,,0.00,WeatherDisplay:10.37,2013-05-06 13:35:00,
2013-05-06 06:40:00,46.8,33.6,29.86,South,180,2.3,0.0,60,0.00,CLR,,0.00,WeatherDisplay:10.37,2013-05-06 13:40:00,
2013-05-06 06:45:00,46.8,33.2,29.86,SE,135,0.0,0.0,59,0.00,CLR,,0.00,WeatherDisplay:10.37,2013-05-06 13:45:00,
2013-05-06 06:50:00,46.9,33.8,29.86,SW,225,0.0,0.0,60,0.00,CLR,,0.00,WeatherDisplay:10.37,2013-05-06 13:50:00,
2013-05-06 06:55:00,48.2,35.4,29.86,SW,225,1.2,0.0,61,0.00,CLR,,0.00,WeatherDisplay:10.37,2013-05-06 13:55:00,
2013-05-06 07:00:00,50.0,36.7,29.86,NW,315,1.2,0.0,60,0.00,CLR,,0.00,WeatherDisplay:10.37,2013-05-06 14:00:00,
2013-05-06 07:05:00,52.2,37.4,29.86,SE,135,0.0,0.0,57,0.00,CLR,,0.00,WeatherDisplay:10.37,2013-05-06 14:05:00,
2013-05-06 07:10:00,53.8,35.1,29.86,SW,225,0.0,0.0,49,0.00,CLR,,0.00,WeatherDisplay:10.37,2013-05-06 14:10:00,
2013-05-06 07:15:00,55.4,29.5,29.87,SW,225,0.0,0.0,37,0.00,CLR,,0.00,WeatherDisplay:10.37,2013-05-06 14:15:00,
2013-05-06 07:20:00,55.6,23.0,29.86,South,180,1.2,1.2,28,0.00,CLR,,0.00,WeatherDisplay:10.37,2013-05-06 14:20:00,
2013-05-06 07:25:00,56.5,19.1,29.86,South,180,0.0,0.0,23,0.00,CLR,,0.00,WeatherDisplay:10.37,2013-05-06 14:25:00,
2013-05-06 07:30:00,58.6,13.9,29.86,NE,45,0.0,0.0,17,0.00,CLR,,0.00,WeatherDisplay:10.37,2013-05-06 14:30:00,
2013-05-06 07:35:00,58.3,3.9,29.86,South,180,1.2,1.2,11,0.00,CLR,,0.00,WeatherDisplay:10.37,2013-05-06 14:35:00,
2013-05-06 07:40:00,56.8,2.8,29.87,South,180,1.2,0.0,11,0.00,CLR,,0.00,WeatherDisplay:10.37,2013-05-06 14:40:00,
2013-05-06 07:45:00,56.1,2.2,29.87,NW,315,1.2,0.0,11,0.00,CLR,,0.00,WeatherDisplay:10.37,2013-05-06 14:45:00,
2013-05-06 07:50:00,57.6,8.6,29.87,South,180,0.0,0.0,14,0.00,CLR,,0.00,WeatherDisplay:10.37,2013-05-06 14:50:00,
2013-05-06 07:55:00,60.8,22.7,29.87,North,0,0.0,0.0,23,0.00,CLR,,0.00,WeatherDisplay:10.37,2013-05-06 14:55:00,
2013-05-06 08:00:00,64.0,13.8,29.87,South,180,1.2,0.0,14,0.00,CLR,,0.00,WeatherDisplay:10.37,2013-05-06 15:00:00,
2013-05-06 08:06:00,66.7,16.0,29.87,South,180,3.5,3.5,14,0.00,CLR,,0.00,WeatherDisplay:10.37,2013-05-06 15:06:00,
2013-05-06 08:11:00,66.7,16.0,29.87,South,180,4.6,4.6,14,0.00,CLR,,0.00,WeatherDisplay:10.37,2013-05-06 15:11:00,
2013-05-06 08:16:00,65.8,15.2,29.87,South,180,6.0,6.0,14,0.00,CLR,,0.00,WeatherDisplay:10.37,2013-05-06 15:16:00,
2013-05-06 08:21:00,65.7,15.1,29.87,South,180,3.5,3.5,14,0.00,CLR,,0.00,WeatherDisplay:10.37,2013-05-06 15:21:00,
2013-05-06 08:26:00,65.1,14.7,29.87,SW,225,5.8,5.8,14,0.00,CLR,,0.00,WeatherDisplay:10.37,2013-05-06 15:26:00,
2013-05-06 08:31:00,64.9,14.5,29.87,SE,135,5.8,5.8,14,0.00,CLR,,0.00,WeatherDisplay:10.37,2013-05-06 15:31:00,
2013-05-06 08:36:00,66.0,15.4,29.87,South,180,4.6,0.0,14,0.00,CLR,,0.00,WeatherDisplay:10.37,2013-05-06 15:36:00,
2013-05-06 08:41:00,68.0,17.0,29.87,South,180,3.5,0.0,14,0.00,CLR,,0.00,WeatherDisplay:10.37,2013-05-06 15:41:00,
2013-05-06 08:46:00,69.3,18.0,29.87,South,180,3.5,3.5,14,0.00,CLR,,0.00,WeatherDisplay:10.37,2013-05-06 15:46:00,
2013-05-06 08:51:00,68.4,17.3,29.87,South,180,5.8,5.8,14,0.00,CLR,,0.00,WeatherDisplay:10.37,2013-05-06 15:51:00,
2013-05-06 08:56:00,67.1,16.3,29.88,South,180,5.8,5.8,14,0.00,CLR,,0.00,WeatherDisplay:10.37,2013-05-06 15:56:00,
2013-05-06 09:01:00,67.8,16.8,29.87,SW,225,3.8,3.8,14,0.00,CLR,,0.00,WeatherDisplay:10.37,2013-05-06 16:01:00,
2013-05-06 09:06:00,69.3,18.0,29.87,South,180,6.9,6.9,14,0.00,CLR,,0.00,WeatherDisplay:10.37,2013-05-06 16:06:00,
2013-05-06 09:11:00,68.0,17.0,29.87,South,180,6.9,6.9,14,0.00,CLR,,0.00,WeatherDisplay:10.37,2013-05-06 16:11:00,
2013-05-06 09:16:00,68.2,17.1,29.88,South,180,5.8,5.8,14,0.00,CLR,,0.00,WeatherDisplay:10.37,2013-05-06 16:16:00,
2013-05-06 09:21:00,68.9,17.7,29.88,South,180,8.1,8.1,14,0.00,CLR,,0.00,WeatherDisplay:10.37,2013-05-06 16:21:00,
2013-05-06 09:26:00,70.0,18.5,29.88,SE,135,5.8,5.8,14,0.00,CLR,,0.00,WeatherDisplay:10.37,2013-05-06 16:26:00,
2013-05-06 09:31:00,70.7,19.1,29.88,South,180,5.8,5.8,14,0.00,CLR,,0.00,WeatherDisplay:10.37,2013-05-06 16:31:00,
2013-05-06 09:36:00,69.8,18.4,29.88,South,180,6.9,6.9,14,0.00,CLR,,0.00,WeatherDisplay:10.37,2013-05-06 16:36:00,
2013-05-06 09:41:00,68.2,17.1,29.88,SE,135,5.8,5.8,14,0.00,CLR,,0.00,WeatherDisplay:10.37,2013-05-06 16:41:00,
2013-05-06 09:46:00,67.5,16.5,29.88,SW,225,6.0,6.0,14,0.00,CLR,,0.00,WeatherDisplay:10.37,2013-05-06 16:46:00,
2013-05-06 09:51:00,68.2,17.1,29.88,South,180,5.8,5.8,14,0.00,CLR,,0.00,WeatherDisplay:10.37,2013-05-06 16:51:00,
2013-05-06 09:56:00,70.0,18.5,29.88,SSW,202,5.8,5.8,14,0.00,CLR,,0.00,WeatherDisplay:10.37,2013-05-06 16:56:00,
2013-05-06 10:01:00,71.2,19.5,29.88,SW,225,3.5,3.5,14,0.00,CLR,,0.00,WeatherDisplay:10.37,2013-05-06 17:01:00,
2013-05-06 10:06:00,72.3,20.4,29.88,SW,225,7.6,7.6,14,0.00,CLR,,0.00,WeatherDisplay:10.37,2013-05-06 17:06:00,
2013-05-06 10:11:00,72.0,20.1,29.88,SW,225,6.9,6.9,14,0.00,CLR,,0.00,WeatherDisplay:10.37,2013-05-06 17:11:00,
2013-05-06 10:16:00,71.8,20.0,29.88,SW,225,8.1,8.1,14,0.00,CLR,,0.00,WeatherDisplay:10.37,2013-05-06 17:16:00,
2013-05-06 10:21:00,71.6,19.8,29.88,SW,225,6.9,6.9,14,0.00,CLR,,0.00,WeatherDisplay:10.37,2013-05-06 17:21:00,
2013-05-06 10:26:00,71.4,19.7,29.88,SW,225,8.1,8.1,14,0.00,CLR,,0.00,WeatherDisplay:10.37,2013-05-06 17:26:00,
2013-05-06 10:31:00,72.1,20.3,29.88,SE,135,8.1,8.1,14,0.00,CLR,,0.00,WeatherDisplay:10.37,2013-05-06 17:31:00,
2013-05-06 10:36:00,73.8,21.5,29.88,South,180,8.1,8.1,14,0.00,CLR,,0.00,WeatherDisplay:10.37,2013-05-06 17:36:00,
2013-05-06 10:41:00,75.0,22.5,29.88,South,180,5.8,5.8,14,0.00,CLR,,0.00,WeatherDisplay:10.37,2013-05-06 17:41:00,
2013-05-06 10:46:00,75.6,23.0,29.88,South,180,10.4,10.4,14,0.00,CLR,,0.00,WeatherDisplay:10.37,2013-05-06 17:46:00,
2013-05-06 10:51:00,75.7,23.1,29.88,NW,315,3.5,3.5,14,0.00,CLR,,0.00,WeatherDisplay:10.37,2013-05-06 17:51:00,
2013-05-06 10:56:00,77.4,24.4,29.88,South,180,9.2,9.2,14,0.00,CLR,,0.00,WeatherDisplay:10.37,2013-05-06 17:56:00,
2013-05-06 11:01:00,76.1,23.4,29.88,SW,225,8.1,8.1,14,0.00,CLR,,0.00,WeatherDisplay:10.37,2013-05-06 18:01:00,
2013-05-06 11:06:00,75.6,23.0,29.88,SW,225,9.2,9.2,14,0.00,CLR,,0.00,WeatherDisplay:10.37,2013-05-06 18:06:00,
2013-05-06 11:11:00,76.3,23.5,29.88,SW,225,12.7,12.7,14,0.00,CLR,,0.00,WeatherDisplay:10.37,2013-05-06 18:11:00,
2013-05-06 11:16:00,74.7,22.3,29.88,SW,225,6.9,6.9,14,0.00,CLR,,0.00,WeatherDisplay:10.37,2013-05-06 18:16:00,
2013-05-06 11:21:00,76.5,23.7,29.88,SW,225,3.5,3.5,14,0.00,CLR,,0.00,WeatherDisplay:10.37,2013-05-06 18:21:00,
2013-05-06 11:26:00,77.4,24.4,29.88,SW,225,8.1,8.1,14,0.00,CLR,,0.00,WeatherDisplay:10.37,2013-05-06 18:26:00,
2013-05-06 11:31:00,77.4,24.4,29.88,South,180,8.1,8.1,14,0.00,CLR,,0.00,WeatherDisplay:10.37,2013-05-06 18:31:00,
2013-05-06 11:36:00,78.3,25.1,29.88,South,180,4.6,4.6,14,0.00,CLR,,0.00,WeatherDisplay:10.37,2013-05-06 18:36:00,
2013-05-06 11:41:00,78.8,25.5,29.88,SW,225,5.8,5.8,14,0.00,CLR,,0.00,WeatherDisplay:10.37,2013-05-06 18:41:00,
2013-05-06 11:46:00,81.1,27.4,29.88,West,270,5.8,5.8,14,0.00,CLR,,0.00,WeatherDisplay:10.37,2013-05-06 18:46:00,
2013-05-06 11:51:00,82.2,28.3,29.87,NW,315,6.9,6.9,14,0.00,CLR,,0.00,WeatherDisplay:10.37,2013-05-06 18:51:00,
2013-05-06 11:56:00,81.1,27.4,29.87,West,270,6.9,6.9,14,0.00,CLR,,0.00,WeatherDisplay:10.37,2013-05-06 18:56:00,
2013-05-06 12:01:00,80.1,26.5,29.87,NE,45,4.6,4.6,14,0.00,CLR,,0.00,WeatherDisplay:10.37,2013-05-06 19:01:00,
2013-05-06 12:06:00,80.1,26.5,29.88,West,270,10.4,10.4,14,0.00,CLR,,0.00,WeatherDisplay:10.37,2013-05-06 19:06:00,
2013-05-06 12:11:00,79.3,26.0,29.88,NW,315,6.9,6.9,14,0.00,CLR,,0.00,WeatherDisplay:10.37,2013-05-06 19:11:00,
2013-05-06 12:16:00,79.0,25.7,29.87,SW,225,5.8,5.8,14,0.00,CLR,,0.00,WeatherDisplay:10.37,2013-05-06 19:16:00,
2013-05-06 12:21:00,80.4,26.8,29.87,NW,315,6.9,6.9,14,0.00,CLR,,0.00,WeatherDisplay:10.37,2013-05-06 19:21:00,
2013-05-06 12:26:00,80.6,27.0,29.87,SW,225,10.4,10.4,14,0.00,CLR,,0.00,WeatherDisplay:10.37,2013-05-06 19:26:00,
2013-05-06 12:31:00,81.0,27.3,29.87,SW,225,6.0,6.0,14,0.00,CLR,,0.00,WeatherDisplay:10.37,2013-05-06 19:31:00,
2013-05-06 12:36:00,80.6,27.0,29.87,NW,315,10.4,10.4,14,0.00,CLR,,0.00,WeatherDisplay:10.37,2013-05-06 19:36:00,
2013-05-06 12:41:00,81.3,27.5,29.87,North,0,5.8,7.6,14,0.00,CLR,,0.00,WeatherDisplay:10.37,2013-05-06 19:41:00,
2013-05-06 12:46:00,81.1,27.4,29.87,NW,315,8.1,8.1,14,0.00,CLR,,0.00,WeatherDisplay:10.37,2013-05-06 19:46:00,
2013-05-06 12:51:00,81.1,27.4,29.86,NW,315,10.4,10.4,14,0.00,CLR,,0.00,WeatherDisplay:10.37,2013-05-06 19:51:00,
2013-05-06 12:56:00,81.0,27.3,29.86,SW,225,8.1,8.1,14,0.00,CLR,,0.00,WeatherDisplay:10.37,2013-05-06 19:56:00,
2013-05-06 13:01:00,79.5,26.1,29.86,West,270,8.1,8.1,14,0.00,CLR,,0.00,WeatherDisplay:10.37,2013-05-06 20:01:00,
2013-05-06 13:06:00,78.6,25.4,29.87,NW,315,5.8,5.8,14,0.00,CLR,,0.00,WeatherDisplay:10.37,2013-05-06 20:06:00,
2013-05-06 13:11:00,78.1,25.0,29.86,NW,315,4.6,4.6,14,0.00,CLR,,0.00,WeatherDisplay:10.37,2013-05-06 20:11:00,
2013-05-06 13:16:00,78.3,25.1,29.86,SW,225,8.1,8.1,14,0.00,CLR,,0.00,WeatherDisplay:10.37,2013-05-06 20:16:00,
2013-05-06 13:21:00,78.4,25.3,29.86,West,270,6.9,6.9,14,0.00,CLR,,0.00,WeatherDisplay:10.37,2013-05-06 20:21:00,
2013-05-06 13:26:00,78.8,25.5,29.86,SW,225,11.5,11.5,14,0.00,CLR,,0.00,WeatherDisplay:10.37,2013-05-06 20:26:00,
2013-05-06 13:35:00,76.5,23.7,29.86,NW,315,5.8,5.8,14,0.00,CLR,,0.00,WeatherDisplay:10.37,2013-05-06 20:35:00,
2013-05-06 13:40:00,77.5,24.5,29.86,NE,45,12.7,12.7,14,0.00,CLR,,0.00,WeatherDisplay:10.37,2013-05-06 20:40:00,
2013-05-06 13:45:00,78.8,25.5,29.86,North,0,4.6,4.6,14,0.00,CLR,,0.00,WeatherDisplay:10.37,2013-05-06 20:45:00,
2013-05-06 13:50:00,78.4,25.3,29.86,SW,225,12.7,12.7,14,0.00,CLR,,0.00,WeatherDisplay:10.37,2013-05-06 20:50:00,
2013-05-06 13:55:00,75.7,23.1,29.86,SW,225,10.4,10.4,14,0.00,CLR,,0.00,WeatherDisplay:10.37,2013-05-06 20:55:00,
2013-05-06 14:00:00,75.9,23.3,29.87,SW,225,11.5,11.5,14,0.00,CLR,,0.00,WeatherDisplay:10.37,2013-05-06 21:00:00,
2013-05-06 14:05:00,76.1,23.4,29.86,SW,225,12.7,12.7,14,0.00,CLR,,0.00,WeatherDisplay:10.37,2013-05-06 21:05:00,
2013-05-06 14:10:00,76.8,24.0,29.86,SW,225,11.5,11.5,14,0.00,CLR,,0.00,WeatherDisplay:10.37,2013-05-06 21:10:00,
2013-05-06 14:15:00,73.9,21.7,29.86,SW,225,13.8,13.8,14,0.00,CLR,,0.00,WeatherDisplay:10.37,2013-05-06 21:15:00,
2013-05-06 14:20:00,73.4,21.3,29.87,West,270,10.4,10.4,14,0.00,CLR,,0.00,WeatherDisplay:10.37,2013-05-06 21:20:00,
2013-05-06 14:25:00,73.6,21.4,29.86,SW,225,12.7,12.7,14,0.00,CLR,,0.00,WeatherDisplay:10.37,2013-05-06 21:25:00,
2013-05-06 14:30:00,74.7,22.3,29.87,SW,225,11.5,11.5,14,0.00,CLR,,0.00,WeatherDisplay:10.37,2013-05-06 21:30:00,
2013-05-06 14:35:00,75.4,22.8,29.87,NW,315,6.9,6.9,14,0.00,CLR,,0.00,WeatherDisplay:10.37,2013-05-06 21:35:00,
2013-05-06 14:40:00,76.8,24.0,29.86,West,270,5.8,5.8,14,0.00,CLR,,0.00,WeatherDisplay:10.37,2013-05-06 21:40:00,
2013-05-06 14:45:00,77.2,24.3,29.87,West,270,6.9,6.9,14,0.00,CLR,,0.00,WeatherDisplay:10.37,2013-05-06 21:45:00,
2013-05-06 14:50:00,77.5,24.5,29.86,NW,315,10.4,10.4,14,0.00,CLR,,0.00,WeatherDisplay:10.37,2013-05-06 21:50:00,
2013-05-06 14:55:00,77.2,24.3,29.86,West,270,8.1,8.1,14,0.00,CLR,,0.00,WeatherDisplay:10.37,2013-05-06 21:55:00,
2013-05-06 15:00:00,77.2,24.3,29.86,WNW,292,6.9,6.9,14,0.00,CLR,,0.00,WeatherDisplay:10.37,2013-05-06 22:00:00,
2013-05-06 15:05:00,77.2,24.3,29.86,NW,315,8.1,8.1,14,0.00,CLR,,0.00,WeatherDisplay:10.37,2013-05-06 22:05:00,
2013-05-06 15:10:00,77.4,24.4,29.86,NW,315,6.0,6.0,14,0.00,CLR,,0.00,WeatherDisplay:10.37,2013-05-06 22:10:00,
2013-05-06 15:15:00,77.0,24.1,29.86,West,270,10.4,10.4,14,0.00,CLR,,0.00,WeatherDisplay:10.37,2013-05-06 22:15:00,
2013-05-06 15:20:00,76.8,24.0,29.86,West,270,8.1,8.1,14,0.00,CLR,,0.00,WeatherDisplay:10.37,2013-05-06 22:20:00,
2013-05-06 15:25:00,76.5,23.7,29.86,South,180,5.8,5.8,14,0.00,CLR,,0.00,WeatherDisplay:10.37,2013-05-06 22:25:00,
2013-05-06 15:30:00,76.1,23.4,29.85,West,270,10.4,10.4,14,0.00,CLR,,0.00,WeatherDisplay:10.37,2013-05-06 22:30:00,
2013-05-06 15:35:00,75.9,23.3,29.85,West,270,10.4,10.4,14,0.00,CLR,,0.00,WeatherDisplay:10.37,2013-05-06 22:35:00,
2013-05-06 15:40:00,76.6,23.8,29.85,WSW,248,8.1,8.1,14,0.00,CLR,,0.00,WeatherDisplay:10.37,2013-05-06 22:40:00,
2013-05-06 15:45:00,76.1,23.4,29.85,NW,315,9.2,9.2,14,0.00,CLR,,0.00,WeatherDisplay:10.37,2013-05-06 22:45:00,
2013-05-06 15:50:00,74.5,22.1,29.85,West,270,10.4,10.4,14,0.00,CLR,,0.00,WeatherDisplay:10.37,2013-05-06 22:50:00,
2013-05-06 15:55:00,72.0,20.1,29.85,West,270,9.8,9.8,14,0.00,CLR,,0.00,WeatherDisplay:10.37,2013-05-06 22:55:00,
2013-05-06 16:00:00,70.5,19.0,29.85,NW,315,8.1,8.1,14,0.00,CLR,,0.00,WeatherDisplay:10.37,2013-05-06 23:00:00,
2013-05-06 16:05:00,70.0,18.5,29.85,SW,225,5.8,5.8,14,0.00,CLR,,0.00,WeatherDisplay:10.37,2013-05-06 23:05:00,
2013-05-06 16:10:00,69.3,18.0,29.85,West,270,5.8,5.8,14,0.00,CLR,,0.00,WeatherDisplay:10.37,2013-05-06 23:10:00,
2013-05-06 16:15:00,69.1,17.8,29.85,SW,225,9.2,9.2,14,0.00,CLR,,0.00,WeatherDisplay:10.37,2013-05-06 23:15:00,
2013-05-06 16:20:00,68.7,17.5,29.85,West,270,8.1,8.1,14,0.00,CLR,,0.00,WeatherDisplay:10.37,2013-05-06 23:20:00,
2013-05-06 16:25:00,68.5,17.4,29.85,SW,225,10.4,10.4,14,0.00,CLR,,0.00,WeatherDisplay:10.37,2013-05-06 23:25:00,
2013-05-06 16:30:00,67.8,16.8,29.85,SW,225,8.1,8.1,14,0.00,CLR,,0.00,WeatherDisplay:10.37,2013-05-06 23:30:00,
2013-05-06 16:35:00,67.3,16.4,29.85,West,270,10.4,10.4,14,0.00,CLR,,0.00,WeatherDisplay:10.37,2013-05-06 23:35:00,
2013-05-06 16:40:00,68.7,17.5,29.85,SW,225,8.1,8.1,14,0.00,CLR,,0.00,WeatherDisplay:10.37,2013-05-06 23:40:00,
2013-05-06 16:45:00,69.8,18.4,29.85,West,270,8.1,8.1,14,0.00,CLR,,0.00,WeatherDisplay:10.37,2013-05-06 23:45:00,
2013-05-06 16:50:00,70.9,19.3,29.86,West,270,10.4,10.4,14,0.00,CLR,,0.00,WeatherDisplay:10.37,2013-05-06 23:50:00,
2013-05-06 16:55:00,71.2,19.5,29.85,NW,315,6.9,6.9,14,0.00,CLR,,0.00,WeatherDisplay:10.37,2013-05-06 23:55:00,
2013-05-06 17:00:00,70.0,18.5,29.86,SW,225,10.7,10.7,14,0.00,CLR,,0.00,WeatherDisplay:10.37,2013-05-07 00:00:00,
2013-05-06 17:05:00,69.6,18.3,29.86,South,180,5.8,5.8,14,0.00,CLR,,0.00,WeatherDisplay:10.37,2013-05-07 00:05:00,
2013-05-06 17:10:00,69.4,18.1,29.85,West,270,8.1,8.1,14,0.00,CLR,,0.00,WeatherDisplay:10.37,2013-05-07 00:10:00,
2013-05-06 17:15:00,70.2,18.7,29.86,West,270,5.8,5.8,14,0.00,CLR,,0.00,WeatherDisplay:10.37,2013-05-07 00:15:00,
2013-05-06 17:20:00,71.2,19.5,29.86,West,270,9.2,9.2,14,0.00,CLR,,0.00,WeatherDisplay:10.37,2013-05-07 00:20:00,
2013-05-06 17:25:00,71.8,20.0,29.85,West,270,8.1,8.1,14,0.00,CLR,,0.00,WeatherDisplay:10.37,2013-05-07 00:25:00,
2013-05-06 17:30:00,71.4,19.7,29.85,NW,315,11.5,11.5,14,0.00,CLR,,0.00,WeatherDisplay:10.37,2013-05-07 00:30:00,
2013-05-06 17:35:00,71.2,19.5,29.85,NW,315,9.2,9.2,14,0.00,CLR,,0.00,WeatherDisplay:10.37,2013-05-07 00:35:00,
2013-05-06 17:40:00,71.4,19.7,29.85,West,270,5.8,5.8,14,0.00,CLR,,0.00,WeatherDisplay:10.37,2013-05-07 00:40:00,
2013-05-06 17:45:00,71.2,19.5,29.85,West,270,8.1,8.1,14,0.00,CLR,,0.00,WeatherDisplay:10.37,2013-05-07 00:45:00,
2013-05-06 17:50:00,70.5,19.0,29.85,SW,225,6.9,6.9,14,0.00,CLR,,0.00,WeatherDisplay:10.37,2013-05-07 00:50:00,
2013-05-06 17:55:00,70.2,18.7,29.86,NW,315,7.6,7.6,14,0.00,CLR,,0.00,WeatherDisplay:10.37,2013-05-07 00:55:00,
2013-05-06 18:00:00,70.5,19.0,29.85,NW,315,5.8,5.8,14,0.00,CLR,,0.00,WeatherDisplay:10.37,2013-05-07 01:00:00,
2013-05-06 18:05:00,70.5,19.0,29.86,NW,315,8.1,8.1,14,0.00,CLR,,0.00,WeatherDisplay:10.37,2013-05-07 01:05:00,
2013-05-06 18:10:00,69.1,17.8,29.86,North,0,8.1,8.1,14,0.00,CLR,,0.00,WeatherDisplay:10.37,2013-05-07 01:10:00,
2013-05-06 18:15:00,69.1,17.8,29.86,West,270,8.1,8.1,14,0.00,CLR,,0.00,WeatherDisplay:10.37,2013-05-07 01:15:00,
2013-05-06 18:20:00,69.4,18.1,29.87,NW,315,6.9,6.9,14,0.00,CLR,,0.00,WeatherDisplay:10.37,2013-05-07 01:20:00,
2013-05-06 18:25:00,69.8,18.4,29.87,West,270,5.8,5.8,14,0.00,CLR,,0.00,WeatherDisplay:10.37,2013-05-07 01:25:00,
2013-05-06 18:30:00,70.2,18.7,29.87,NW,315,4.5,4.5,14,0.00,CLR,,0.00,WeatherDisplay:10.37,2013-05-07 01:30:00,
2013-05-06 18:35:00,70.5,19.0,29.87,NW,315,3.5,3.5,14,0.00,CLR,,0.00,WeatherDisplay:10.37,2013-05-07 01:35:00,
2013-05-06 18:40:00,71.1,19.4,29.87,South,180,3.5,0.0,14,0.00,CLR,,0.00,WeatherDisplay:10.37,2013-05-07 01:40:00,
2013-05-06 18:45:00,71.1,19.4,29.88,SW,225,3.5,3.5,14,0.00,CLR,,0.00,WeatherDisplay:10.37,2013-05-07 01:45:00,
2013-05-06 18:50:00,70.2,18.7,29.87,SW,225,9.2,9.2,14,0.00,CLR,,0.00,WeatherDisplay:10.37,2013-05-07 01:50:00,
2013-05-06 18:55:00,65.8,15.2,29.87,SW,225,10.4,10.4,14,0.00,CLR,,0.00,WeatherDisplay:10.37,2013-05-07 01:55:00,
2013-05-06 19:00:00,64.2,14.0,29.87,SW,225,6.9,6.9,14,0.00,CLR,,0.00,WeatherDisplay:10.37,2013-05-07 02:00:00,
2013-05-06 19:05:00,63.9,13.7,29.87,SW,225,4.6,4.6,14,0.00,CLR,,0.00,WeatherDisplay:10.37,2013-05-07 02:05:00,
2013-05-06 19:10:00,63.0,13.0,29.87,SW,225,9.2,9.2,14,0.00,CLR,,0.00,WeatherDisplay:10.37,2013-05-07 02:10:00,
2013-05-06 19:15:00,62.8,12.8,29.88,SW,225,3.5,3.5,14,0.00,CLR,,0.00,WeatherDisplay:10.37,2013-05-07 02:15:00,
2013-05-06 19:20:00,61.7,11.9,29.88,West,270,3.5,3.5,14,0.00,CLR,,0.00,WeatherDisplay:10.37,2013-05-07 02:20:00,
2013-05-06 19:25:00,60.3,10.8,29.89,SW,225,8.1,8.1,14,0.00,CLR,,0.00,WeatherDisplay:10.37,2013-05-07 02:25:00,
2013-05-06 19:30:00,58.6,9.5,29.88,South,180,9.2,9.2,14,0.00,CLR,,0.00,WeatherDisplay:10.37,2013-05-07 02:30:00,
2013-05-06 19:35:00,57.9,8.9,29.89,SW,225,4.6,4.6,14,0.00,CLR,,0.00,WeatherDisplay:10.37,2013-05-07 02:35:00,
2013-05-06 19:40:00,57.4,8.5,29.90,West,270,5.8,5.8,14,0.00,CLR,,0.00,WeatherDisplay:10.37,2013-05-07 02:40:00,
2013-05-06 19:45:00,56.7,7.9,29.90,SSW,202,6.9,6.9,14,0.00,CLR,,0.00,WeatherDisplay:10.37,2013-05-07 02:45:00,
2013-05-06 19:50:00,55.8,7.2,29.90,South,180,9.2,9.2,14,0.00,CLR,,0.00,WeatherDisplay:10.37,2013-05-07 02:50:00,
2013-05-06 19:55:00,55.6,15.1,29.91,SSW,202,5.8,5.8,20,0.00,CLR,,0.00,WeatherDisplay:10.37,2013-05-07 02:55:00,
2013-05-06 20:00:00,55.2,18.0,29.91,South,180,9.2,9.2,23,0.00,CLR,,0.00,WeatherDisplay:10.37,2013-05-07 03:00:00,
2013-05-06 20:05:00,54.9,20.6,29.92,SW,225,11.5,11.5,26,0.00,CLR,,0.00,WeatherDisplay:10.37,2013-05-07 03:05:00,
2013-05-06 20:10:00,54.3,24.3,29.91,SW,225,9.2,9.2,31,0.00,CLR,,0.00,WeatherDisplay:10.37,2013-05-07 03:10:00,
2013-05-06 20:15:00,54.1,26.4,29.91,SW,225,8.1,8.1,34,0.00,CLR,,0.00,WeatherDisplay:10.37,2013-05-07 03:15:00,
2013-05-06 20:20:00,54.1,28.4,29.92,SW,225,4.6,4.6,37,0.00,CLR,,0.00,WeatherDisplay:10.37,2013-05-07 03:20:00,
2013-05-06 20:25:00,54.1,29.1,29.92,SW,225,5.8,5.8,38,0.00,CLR,,0.00,WeatherDisplay:10.37,2013-05-07 03:25:00,
2013-05-06 20:30:00,54.0,29.5,29.91,SW,225,10.4,10.4,39,0.00,CLR,,0.00,WeatherDisplay:10.37,2013-05-07 03:30:00,
2013-05-06 20:35:00,54.0,30.8,29.92,SW,225,8.1,8.1,41,0.00,CLR,,0.00,WeatherDisplay:10.37,2013-05-07 03:35:00,
2013-05-06 20:40:00,53.8,31.2,29.92,SW,225,6.9,6.9,42,0.00,CLR,,0.00,WeatherDisplay:10.37,2013-05-07 03:40:00,
2013-05-06 20:45:00,53.8,31.8,29.93,SW,225,6.9,6.9,43,0.00,CLR,,0.00,WeatherDisplay:10.37,2013-05-07 03:45:00,
2013-05-06 20:50:00,53.6,32.2,29.93,SW,225,5.8,5.8,44,0.00,CLR,,0.00,WeatherDisplay:10.37,2013-05-07 03:50:00,
2013-05-06 20:55:00,53.6,32.8,29.93,SW,225,5.8,5.8,45,0.00,CLR,,0.00,WeatherDisplay:10.37,2013-05-07 03:55:00,
2013-05-06 21:00:00,53.6,33.3,29.94,SW,225,5.8,5.8,46,0.00,CLR,,0.00,WeatherDisplay:10.37,2013-05-07 04:00:00,
2013-05-06 21:01:00,53.6,33.3,29.93,SW,225,4.6,4.6,46,0.00,CLR,,0.00,WeatherDisplay:10.37,2013-05-07 04:01:00,
2013-05-06 21:03:00,53.6,33.3,29.93,SW,225,5.8,5.8,46,0.00,CLR,,0.00,WeatherDisplay:10.37,2013-05-07 04:03:00,
2013-05-06 21:08:00,53.6,33.3,29.93,SW,225,9.2,9.2,46,0.00,CLR,,0.00,WeatherDisplay:10.37,2013-05-07 04:08:00,
2013-05-06 21:13:00,53.6,33.3,29.93,SW,225,8.1,8.1,46,0.00,CLR,,0.00,WeatherDisplay:10.37,2013-05-07 04:13:00,
2013-05-06 21:18:00,53.4,33.7,29.93,SSW,202,10.4,10.4,47,0.00,CLR,,0.00,WeatherDisplay:10.37,2013-05-07 04:18:00,
2013-05-06 21:23:00,53.4,33.7,29.94,SW,225,8.1,8.1,47,0.00,CLR,,0.00,WeatherDisplay:10.37,2013-05-07 04:23:00,
2013-05-06 21:28:00,53.4,34.2,29.94,SW,225,10.4,10.4,48,0.00,CLR,,0.00,WeatherDisplay:10.37,2013-05-07 04:28:00,
2013-05-06 21:33:00,53.4,34.7,29.94,South,180,8.1,8.1,49,0.00,CLR,,0.00,WeatherDisplay:10.37,2013-05-07 04:33:00,
2013-05-06 21:38:00,53.4,35.2,29.94,SW,225,8.1,8.1,50,0.00,CLR,,0.00,WeatherDisplay:10.37,2013-05-07 04:38:00,
2013-05-06 21:43:00,53.2,35.1,29.94,South,180,8.1,8.1,50,0.00,CLR,,0.00,WeatherDisplay:10.37,2013-05-07 04:43:00,
2013-05-06 21:48:00,53.2,35.1,29.94,SW,225,10.7,10.7,50,0.00,CLR,,0.00,WeatherDisplay:10.37,2013-05-07 04:48:00,
2013-05-06 21:53:00,53.1,35.4,29.94,SE,135,12.7,12.7,51,0.00,CLR,,0.00,WeatherDisplay:10.37,2013-05-07 04:53:00,
2013-05-06 21:58:00,52.9,35.7,29.94,SW,225,15.0,15.0,52,0.00,CLR,,0.00,WeatherDisplay:10.37,2013-05-07 04:58:00,
2013-05-06 22:03:00,52.9,36.2,29.94,SW,225,10.4,10.4,53,0.00,CLR,,0.00,WeatherDisplay:10.37,2013-05-07 05:03:00,
2013-05-06 22:08:00,52.9,36.7,29.94,SW,225,5.8,5.8,54,0.00,CLR,,0.00,WeatherDisplay:10.37,2013-05-07 05:08:00,
2013-05-06 22:13:00,52.7,37.0,29.94,SW,225,11.5,11.5,55,0.00,CLR,,0.00,WeatherDisplay:10.37,2013-05-07 05:13:00,
2013-05-06 22:18:00,52.7,37.4,29.94,SW,225,9.2,9.2,56,0.00,CLR,,0.00,WeatherDisplay:10.37,2013-05-07 05:18:00,
2013-05-06 22:23:00,52.5,37.7,29.95,SW,225,11.5,11.5,57,0.00,CLR,,0.00,WeatherDisplay:10.37,2013-05-07 05:23:00,
2013-05-06 22:28:00,52.5,38.2,29.95,South,180,9.2,9.2,58,0.00,CLR,,0.00,WeatherDisplay:10.37,2013-05-07 05:28:00,
2013-05-06 22:33:00,52.5,38.6,29.95,SW,225,12.7,12.7,59,0.00,CLR,,0.00,WeatherDisplay:10.37,2013-05-07 05:33:00,
2013-05-06 22:38:00,52.3,38.4,29.95,SW,225,11.5,11.5,59,0.00,CLR,,0.00,WeatherDisplay:10.37,2013-05-07 05:38:00,
2013-05-06 22:43:00,52.3,38.9,29.95,South,180,10.4,10.4,60,0.00,CLR,,0.00,WeatherDisplay:10.37,2013-05-07 05:43:00,
2013-05-06 22:48:00,52.3,38.9,29.95,SW,225,10.4,10.4,60,0.00,CLR,,0.00,WeatherDisplay:10.37,2013-05-07 05:48:00,
2013-05-06 22:53:00,52.3,39.3,29.95,SW,225,9.2,9.2,61,0.00,CLR,,0.00,WeatherDisplay:10.37,2013-05-07 05:53:00,
2013-05-06 22:58:00,52.3,39.3,29.95,South,180,12.7,12.7,61,0.00,CLR,,0.00,WeatherDisplay:10.37,2013-05-07 05:58:00,
2013-05-06 23:03:00,52.3,39.3,29.95,SW,225,5.8,5.8,61,0.00,CLR,,0.00,WeatherDisplay:10.37,2013-05-07 06:03:00,
2013-05-06 23:08:00,52.3,39.3,29.95,SW,225,5.8,5.8,61,0.00,CLR,,0.00,WeatherDisplay:10.37,2013-05-07 06:08:00,
2013-05-06 23:13:00,52.5,39.5,29.95,SSE,158,8.1,8.1,61,0.00,CLR,,0.00,WeatherDisplay:10.37,2013-05-07 06:13:00,
2013-05-06 23:18:00,52.5,39.5,29.96,SW,225,4.6,4.6,61,0.00,CLR,,0.00,WeatherDisplay:10.37,2013-05-07 06:18:00,
2013-05-06 23:23:00,52.5,39.5,29.95,SSW,202,6.9,6.9,61,0.00,CLR,,0.00,WeatherDisplay:10.37,2013-05-07 06:23:00,
2013-05-06 23:28:00,52.5,39.5,29.95,SW,225,10.4,10.4,61,0.00,CLR,,0.00,WeatherDisplay:10.37,2013-05-07 06:28:00,
2013-05-06 23:33:00,52.5,39.0,29.96,South,180,9.2,9.2,60,0.00,CLR,,0.00,WeatherDisplay:10.37,2013-05-07 06:33:00,
2013-05-06 23:38:00,52.5,39.0,29.95,SW,225,6.9,6.9,60,0.00,CLR,,0.00,WeatherDisplay:10.37,2013-05-07 06:38:00,
2013-05-06 23:43:00,52.5,39.0,29.95,SW,225,6.9,6.9,60,0.00,CLR,,0.00,WeatherDisplay:10.37,2013-05-07 06:43:00,
2013-05-06 23:48:00,52.7,39.2,29.96,SW,225,4.5,4.5,60,0.00,CLR,,0.00,WeatherDisplay:10.37,2013-05-07 06:48:00,
2013-05-06 23:53:00,52.7,38.8,29.96,SW,225,4.6,4.6,59,0.00,CLR,,0.00,WeatherDisplay:10.37,2013-05-07 06:53:00,
2013-05-06 23:58:00,52.7,38.8,29.95,SW,225,5.8,5.8,59,0.00,CLR,,0.00,WeatherDisplay:10.37,2013-05-07 06:58:00,